createdAt,value
2023-03-17T00:01:59.415Z,4.07
2023-03-17T00:04:47.269Z,3.97
2023-03-17T00:07:34.527Z,4.47
2023-03-17T00:10:25.782Z,3.90
2023-03-17T00:13:13.369Z,4.07
2023-03-17T00:16:03.047Z,4.10
2023-03-17T00:18:51.006Z,4.33
2023-03-17T00:21:38.883Z,4.03
2023-03-17T00:24:26.910Z,3.27
2023-03-17T00:27:14.357Z,4.23
2023-03-17T00:30:02.234Z,4.03
2023-03-17T00:32:51.595Z,3.50
2023-03-17T00:35:41.432Z,3.50
2023-03-17T00:38:30.123Z,4.13
2023-03-17T00:41:18.297Z,4.20
2023-03-17T00:44:06.093Z,3.93
2023-03-17T00:46:54.911Z,3.67
2023-03-17T00:49:42.855Z,3.63
2023-03-17T00:52:30.706Z,3.83
2023-03-17T00:55:20.043Z,3.97
2023-03-17T00:58:14.961Z,3.97
2023-03-17T01:01:03.073Z,4.20
2023-03-17T01:03:51.744Z,3.97
2023-03-17T01:06:39.048Z,4.47
2023-03-17T01:09:28.437Z,4.93
2023-03-17T01:12:15.970Z,4.00
2023-03-17T01:15:04.139Z,3.70
2023-03-17T01:17:52.388Z,4.57
2023-03-17T01:20:41.253Z,4.07
2023-03-17T01:23:28.528Z,4.07
2023-03-17T01:26:16.478Z,4.13
2023-03-17T01:29:04.785Z,4.40
2023-03-17T01:31:53.409Z,4.20
2023-03-17T01:34:41.224Z,3.93
2023-03-17T01:37:28.672Z,3.80
2023-03-17T01:40:19.456Z,4.53
2023-03-17T01:43:08.178Z,4.70
2023-03-17T01:46:15.195Z,3.90
2023-03-17T01:49:09.453Z,4.30
2023-03-17T01:52:01.399Z,4.50
2023-03-17T01:54:51.274Z,3.97
2023-03-17T01:57:42.082Z,4.03
2023-03-17T02:00:30.114Z,4.70
2023-03-17T02:03:18.109Z,4.07
2023-03-17T02:06:07.683Z,4.50
2023-03-17T02:08:55.580Z,4.83
2023-03-17T02:11:43.812Z,4.43
2023-03-17T02:14:31.176Z,4.47
2023-03-17T02:17:19.248Z,4.10
2023-03-17T02:20:33.350Z,4.27
2023-03-17T02:23:25.694Z,4.13
2023-03-17T02:26:13.558Z,4.57
2023-03-17T02:29:01.148Z,3.90
2023-03-17T02:31:48.844Z,4.10
2023-03-17T02:34:36.614Z,4.13
2023-03-17T02:37:24.415Z,4.03
2023-03-17T02:40:13.880Z,3.70
2023-03-17T02:43:02.895Z,4.57
2023-03-17T02:45:50.721Z,4.27
2023-03-17T02:48:38.770Z,4.53
2023-03-17T02:51:26.586Z,4.27
2023-03-17T02:54:13.871Z,4.40
2023-03-17T02:57:01.796Z,5.00
2023-03-17T02:59:49.620Z,4.90
2023-03-17T03:02:38.107Z,4.57
2023-03-17T03:05:25.605Z,5.27
2023-03-17T03:08:13.358Z,4.53
2023-03-17T03:11:02.941Z,4.33
2023-03-17T03:13:50.393Z,4.40
2023-03-17T03:16:38.879Z,4.40
2023-03-17T03:19:26.185Z,4.70
2023-03-17T03:22:14.030Z,4.37
2023-03-17T03:25:01.849Z,4.50
2023-03-17T03:27:49.201Z,5.20
2023-03-17T03:30:37.786Z,4.20
2023-03-17T03:33:25.565Z,4.30
2023-03-17T03:36:13.942Z,5.00
2023-03-17T03:39:02.115Z,5.00
2023-03-17T03:41:50.020Z,5.37
2023-03-17T03:44:37.334Z,4.70
2023-03-17T03:47:25.165Z,4.97
2023-03-17T03:50:12.483Z,4.33
2023-03-17T03:53:00.441Z,4.77
2023-03-17T03:55:47.714Z,4.23
2023-03-17T03:58:36.147Z,4.20
2023-03-17T04:01:23.576Z,4.10
2023-03-17T04:04:11.395Z,4.37
2023-03-17T04:06:58.727Z,3.73
2023-03-17T04:09:46.708Z,4.03
2023-03-17T04:12:33.994Z,4.37
2023-03-17T04:15:21.868Z,4.40
2023-03-17T04:18:09.665Z,4.67
2023-03-17T04:20:57.451Z,3.93
2023-03-17T04:23:45.182Z,4.30
2023-03-17T04:26:33.503Z,4.00
2023-03-17T04:29:21.114Z,4.93
2023-03-17T04:32:08.992Z,4.97
2023-03-17T04:34:57.099Z,4.80
2023-03-17T04:37:45.330Z,4.77
2023-03-17T04:40:33.258Z,4.07
2023-03-17T04:43:20.872Z,4.03
2023-03-17T04:46:09.516Z,4.33
2023-03-17T04:48:57.037Z,4.43
2023-03-17T04:51:44.972Z,4.80
2023-03-17T04:54:32.258Z,3.50
2023-03-17T04:57:20.108Z,4.17
2023-03-17T05:00:08.297Z,4.73
2023-03-17T05:02:56.489Z,4.30
2023-03-17T05:05:43.958Z,4.30
2023-03-17T05:08:31.424Z,4.43
2023-03-17T05:11:19.246Z,4.67
2023-03-17T05:14:07.121Z,4.60
2023-03-17T05:16:54.785Z,4.93
2023-03-17T05:19:42.497Z,4.67
2023-03-17T05:22:30.274Z,4.30
2023-03-17T05:25:18.479Z,4.67
2023-03-17T05:28:07.009Z,4.77
2023-03-17T05:30:55.374Z,4.40
2023-03-17T05:33:43.449Z,4.00
2023-03-17T05:36:31.386Z,4.90
2023-03-17T05:39:18.660Z,4.90
2023-03-17T05:42:06.754Z,4.50
2023-03-17T05:44:54.748Z,4.77
2023-03-17T05:47:43.091Z,4.20
2023-03-17T05:50:31.387Z,4.80
2023-03-17T05:53:19.111Z,4.77
2023-03-17T05:56:07.112Z,4.50
2023-03-17T05:58:54.936Z,4.87
2023-03-17T06:01:42.356Z,5.20
2023-03-17T06:04:30.152Z,4.67
2023-03-17T06:07:17.533Z,4.07
2023-03-17T06:10:06.761Z,4.60
2023-03-17T06:12:55.062Z,4.60
2023-03-17T06:15:43.544Z,4.97
2023-03-17T06:18:31.839Z,4.33
2023-03-17T06:21:19.171Z,4.87
2023-03-17T06:24:07.426Z,5.07
2023-03-17T06:26:55.263Z,4.33
2023-03-17T06:29:42.718Z,5.03
2023-03-17T06:32:31.194Z,4.10
2023-03-17T06:35:22.467Z,4.30
2023-03-17T06:38:13.955Z,4.63
2023-03-17T06:41:01.758Z,4.57
2023-03-17T06:43:49.867Z,4.00
2023-03-17T06:46:37.951Z,4.10
2023-03-17T06:49:25.720Z,4.27
2023-03-17T06:52:14.502Z,4.30
2023-03-17T06:55:02.344Z,4.27
2023-03-17T06:57:51.206Z,4.43
2023-03-17T07:00:40.473Z,5.17
2023-03-17T07:03:28.215Z,4.43
2023-03-17T07:06:15.521Z,4.13
2023-03-17T07:09:03.690Z,3.63
2023-03-17T07:11:51.992Z,3.77
2023-03-17T07:14:40.191Z,3.50
2023-03-17T07:17:27.506Z,4.60
2023-03-17T07:20:15.558Z,4.93
2023-03-17T07:23:03.045Z,4.93
2023-03-17T07:25:52.001Z,4.63
2023-03-17T07:28:40.332Z,4.87
2023-03-17T07:31:28.754Z,4.67
2023-03-17T07:34:16.597Z,4.23
2023-03-17T07:37:04.788Z,4.47
2023-03-17T07:39:52.350Z,4.20
2023-03-17T07:42:40.110Z,3.67
2023-03-17T07:45:28.386Z,4.30
2023-03-17T07:48:16.280Z,4.30
2023-03-17T07:51:04.176Z,4.00
2023-03-17T07:53:51.944Z,3.43
2023-03-17T07:56:40.109Z,3.20
2023-03-17T07:59:27.522Z,3.63
2023-03-17T08:02:17.006Z,3.20
2023-03-17T08:05:05.869Z,3.07
2023-03-17T08:07:54.340Z,2.77
2023-03-17T08:10:41.615Z,3.33
2023-03-17T08:13:29.358Z,2.80
2023-03-17T08:16:17.355Z,2.80
2023-03-17T08:21:46.198Z,6.53
2023-03-17T08:24:34.140Z,5.13
2023-03-17T08:30:33.274Z,3.97
2023-03-17T08:33:21.757Z,3.65
2023-03-17T08:36:11.440Z,3.55
2023-03-17T08:38:59.699Z,2.70
2023-03-17T08:41:47.168Z,2.08
2023-03-17T08:44:35.155Z,2.40
2023-03-17T08:47:23.468Z,2.22
2023-03-17T08:50:13.986Z,2.20
2023-03-17T08:53:01.585Z,2.15
2023-03-17T08:55:49.076Z,2.67
2023-03-17T08:58:37.458Z,2.30
2023-03-17T09:01:25.499Z,2.03
2023-03-17T09:04:12.943Z,2.10
2023-03-17T09:07:03.647Z,2.60
2023-03-17T09:09:52.182Z,2.55
2023-03-17T09:12:40.444Z,2.17
2023-03-17T09:15:28.473Z,2.75
2023-03-17T09:18:15.978Z,2.70
2023-03-17T09:21:04.308Z,3.33
2023-03-17T09:23:51.948Z,2.92
2023-03-17T09:26:39.899Z,1.95
2023-03-17T09:29:27.846Z,2.40
2023-03-17T09:32:16.081Z,2.25
2023-03-17T09:35:03.985Z,2.58
2023-03-17T09:37:52.077Z,2.45
2023-03-17T09:40:48.311Z,2.10
2023-03-17T09:43:40.682Z,1.98
2023-03-17T09:46:47.303Z,2.67
2023-03-17T09:49:54.663Z,2.22
2023-03-17T09:52:43.044Z,2.33
2023-03-17T09:55:32.261Z,2.17
2023-03-17T09:58:21.986Z,2.63
2023-03-17T10:01:10.830Z,2.13
2023-03-17T10:03:58.674Z,2.40
2023-03-17T10:06:50.071Z,2.45
2023-03-17T10:09:37.488Z,2.08
2023-03-17T10:12:33.334Z,2.60
2023-03-17T10:15:43.486Z,4.15
2023-03-17T10:18:33.971Z,2.53
2023-03-17T10:21:24.771Z,2.10
2023-03-17T10:24:12.343Z,1.85
2023-03-17T10:27:03.022Z,1.80
2023-03-17T10:29:50.842Z,2.10
2023-03-17T10:32:40.265Z,2.13
2023-03-17T10:35:28.077Z,2.13
2023-03-17T10:38:17.458Z,1.90
2023-03-17T10:41:09.927Z,1.83
2023-03-17T10:43:59.890Z,1.80
2023-03-17T10:46:53.075Z,2.10
2023-03-17T10:49:41.847Z,2.00
2023-03-17T10:52:31.458Z,2.15
2023-03-17T10:55:21.334Z,2.22
2023-03-17T10:58:15.284Z,1.90
2023-03-17T11:01:08.305Z,1.70
2023-03-17T11:03:55.978Z,2.03
2023-03-17T11:06:47.160Z,1.65
2023-03-17T11:09:35.777Z,2.00
2023-03-17T11:12:36.539Z,1.70
2023-03-17T11:15:24.605Z,1.75
2023-03-17T11:18:17.752Z,1.65
2023-03-17T11:21:14.030Z,1.70
2023-03-17T11:24:01.413Z,2.00
2023-03-17T11:26:49.312Z,1.70
2023-03-17T11:29:36.701Z,1.45
2023-03-17T11:32:24.687Z,1.10
2023-03-17T11:35:15.136Z,2.15
2023-03-17T11:38:26.867Z,1.75
2023-03-17T11:41:14.347Z,1.98
2023-03-17T11:44:18.413Z,3.97
2023-03-17T11:47:09.051Z,1.83
2023-03-17T11:50:03.687Z,1.33
2023-03-17T11:52:51.190Z,1.70
2023-03-17T11:55:46.824Z,1.42
2023-03-17T11:58:57.958Z,1.77
2023-03-17T12:01:51.551Z,1.60
2023-03-17T12:04:43.843Z,1.80
2023-03-17T12:07:34.248Z,2.72
2023-03-17T12:10:34.483Z,2.72
2023-03-17T12:13:21.883Z,1.67
2023-03-17T12:16:23.170Z,2.25
2023-03-17T12:19:14.567Z,1.23
2023-03-17T12:22:04.464Z,1.58
2023-03-17T12:25:05.950Z,1.60
2023-03-17T12:28:05.043Z,1.23
2023-03-17T12:31:17.012Z,1.33
2023-03-17T12:34:05.246Z,1.60
2023-03-17T12:36:52.939Z,1.60
2023-03-17T12:39:42.523Z,1.80
2023-03-17T12:42:37.848Z,1.90
2023-03-17T12:45:31.286Z,1.88
2023-03-17T12:48:38.297Z,1.70
2023-03-17T12:51:25.839Z,1.73
2023-03-17T12:54:22.051Z,1.95
2023-03-17T12:57:36.353Z,2.10
2023-03-17T13:00:29.686Z,1.50
2023-03-17T13:03:17.447Z,1.60
2023-03-17T13:06:08.493Z,2.17
2023-03-17T13:08:55.804Z,2.08
2023-03-17T13:11:43.239Z,2.30
2023-03-17T13:14:46.297Z,3.08
2023-03-17T13:17:34.846Z,2.30
2023-03-17T13:20:37.263Z,2.10
2023-03-17T13:23:36.982Z,2.72
2023-03-17T13:26:44.709Z,2.50
2023-03-17T13:29:35.483Z,2.20
2023-03-17T13:32:26.411Z,2.50
2023-03-17T13:35:19.033Z,2.60
2023-03-17T13:38:30.294Z,2.65
2023-03-17T13:41:32.176Z,2.17
2023-03-17T13:44:19.545Z,2.28
2023-03-17T13:47:25.982Z,2.33
2023-03-17T13:50:17.919Z,2.22
2023-03-17T13:53:10.868Z,2.67
2023-03-17T13:56:14.446Z,2.30
2023-03-17T13:59:08.288Z,2.42
2023-03-17T14:01:55.754Z,1.80
2023-03-17T14:04:52.101Z,1.92
2023-03-17T14:07:59.698Z,2.75
2023-03-17T14:10:53.754Z,2.28
2023-03-17T14:13:47.962Z,2.13
2023-03-17T14:16:39.033Z,2.35
2023-03-17T14:19:28.038Z,2.72
2023-03-17T14:22:20.969Z,2.30
2023-03-17T14:25:15.262Z,3.05
2023-03-17T14:28:06.320Z,2.58
2023-03-17T14:30:55.384Z,2.38
2023-03-17T14:33:43.478Z,2.30
2023-03-17T14:36:34.342Z,2.72
2023-03-17T14:39:25.987Z,2.70
2023-03-17T14:42:13.361Z,3.10
2023-03-17T14:45:02.830Z,2.47
2023-03-17T14:47:50.965Z,2.60
2023-03-17T14:50:38.264Z,2.65
2023-03-17T14:53:26.830Z,2.60
2023-03-17T14:56:14.354Z,2.15
2023-03-17T14:59:06.443Z,2.80
2023-03-17T15:01:54.821Z,2.35
2023-03-17T15:04:51.143Z,5.80
2023-03-17T15:07:40.324Z,4.10
2023-03-17T15:10:31.286Z,3.20
2023-03-17T15:13:18.828Z,3.10
2023-03-17T15:16:26.941Z,3.70
2023-03-17T15:19:22.247Z,2.60
2023-03-17T15:22:25.877Z,2.40
2023-03-17T15:25:46.149Z,2.55
2023-03-17T15:28:33.922Z,2.42
2023-03-17T15:31:26.500Z,2.70
2023-03-17T15:34:16.184Z,2.30
2023-03-17T15:37:03.500Z,2.50
2023-03-17T15:39:52.847Z,2.97
2023-03-17T15:42:40.276Z,3.00
2023-03-17T15:45:28.227Z,2.50
2023-03-17T15:48:32.698Z,2.65
2023-03-17T15:51:20.011Z,2.67
2023-03-17T15:54:07.290Z,3.05
2023-03-17T15:56:54.647Z,2.60
2023-03-17T15:59:42.134Z,2.47
2023-03-17T16:02:39.329Z,2.47
2023-03-17T16:05:27.685Z,2.70
2023-03-17T16:08:18.358Z,2.47
2023-03-17T16:11:08.225Z,2.58
2023-03-17T16:13:59.764Z,2.47
2023-03-17T16:16:47.179Z,2.72
2023-03-17T16:19:34.830Z,2.30
2023-03-17T16:22:42.097Z,2.58
2023-03-17T16:25:30.792Z,3.08
2023-03-17T16:28:19.864Z,2.58
2023-03-17T16:31:16.747Z,2.40
2023-03-17T16:34:04.506Z,2.30
2023-03-17T16:36:51.813Z,2.70
2023-03-17T16:39:40.433Z,2.08
2023-03-17T16:42:28.429Z,2.88
2023-03-17T16:45:18.990Z,2.70
2023-03-17T16:48:06.503Z,2.50
2023-03-17T16:50:55.808Z,2.28
2023-03-17T16:53:43.327Z,2.92
2023-03-17T16:56:31.615Z,3.15
2023-03-17T16:59:24.471Z,3.25
2023-03-17T17:02:18.671Z,3.55
2023-03-17T17:05:07.267Z,4.13
2023-03-17T17:07:56.713Z,3.00
2023-03-17T17:10:44.202Z,2.97
2023-03-17T17:13:31.995Z,3.28
2023-03-17T17:16:19.343Z,3.80
2023-03-17T17:19:16.193Z,2.93
2023-03-17T17:22:07.134Z,3.40
2023-03-17T17:24:55.007Z,3.05
2023-03-17T17:27:44.297Z,2.78
2023-03-17T17:30:32.053Z,3.50
2023-03-17T17:33:20.084Z,2.93
2023-03-17T17:36:12.709Z,2.93
2023-03-17T17:39:01.010Z,3.30
2023-03-17T17:41:48.942Z,2.90
2023-03-17T17:44:37.174Z,2.60
2023-03-17T17:47:25.167Z,2.90
2023-03-17T17:50:17.247Z,3.27
2023-03-17T17:53:08.594Z,3.20
2023-03-17T17:55:56.159Z,2.90
2023-03-17T17:58:44.194Z,3.17
2023-03-17T18:01:31.709Z,3.23
2023-03-17T18:04:19.742Z,3.77
2023-03-17T18:07:07.573Z,3.53
2023-03-17T18:09:55.167Z,3.13
2023-03-17T18:12:42.551Z,3.80
2023-03-17T18:15:29.903Z,3.60
2023-03-17T18:18:17.248Z,4.23
2023-03-17T18:21:04.658Z,3.53
2023-03-17T18:23:55.374Z,3.73
2023-03-17T18:26:42.812Z,4.37
2023-03-17T18:29:30.942Z,4.67
2023-03-17T18:32:18.328Z,4.03
2023-03-17T18:35:09.000Z,3.80
2023-03-17T18:37:57.507Z,4.10
2023-03-17T18:40:45.525Z,4.60
2023-03-17T18:43:33.373Z,4.47
2023-03-17T18:46:21.359Z,4.30
2023-03-17T18:49:09.560Z,4.80
2023-03-17T18:51:57.800Z,4.30
2023-03-17T18:54:45.124Z,5.97
2023-03-17T18:57:32.362Z,4.77
2023-03-17T19:00:19.846Z,6.20
2023-03-17T19:03:07.192Z,7.00
2023-03-17T19:05:55.993Z,6.47
2023-03-17T19:08:43.624Z,7.13
2023-03-17T19:11:31.493Z,7.73
2023-03-17T19:14:18.831Z,9.23
2023-03-17T19:17:07.506Z,8.60
2023-03-17T19:19:54.891Z,9.17
2023-03-17T19:22:42.838Z,8.07
2023-03-17T19:25:30.094Z,10.47
2023-03-17T19:28:18.582Z,11.00
2023-03-17T19:31:06.201Z,10.87
2023-03-17T19:33:55.364Z,8.60
2023-03-17T19:36:46.914Z,8.47
2023-03-17T19:39:34.198Z,8.40
2023-03-17T19:42:22.448Z,9.60
2023-03-17T19:45:10.480Z,10.23
2023-03-17T19:47:58.024Z,8.63
2023-03-17T19:50:46.530Z,7.43
2023-03-17T19:53:34.157Z,6.93
2023-03-17T19:56:22.938Z,8.70
2023-03-17T19:59:10.356Z,6.33
2023-03-17T20:01:58.405Z,6.87
2023-03-17T20:04:45.959Z,7.47
2023-03-17T20:07:33.917Z,7.23
2023-03-17T20:10:21.769Z,7.13
2023-03-17T20:13:09.466Z,8.10
2023-03-17T20:15:57.271Z,7.30
2023-03-17T20:18:45.234Z,7.87
2023-03-17T20:21:33.128Z,7.43
2023-03-17T20:24:20.552Z,7.07
2023-03-17T20:27:08.845Z,7.00
2023-03-17T20:29:57.335Z,5.93
2023-03-17T20:32:45.344Z,7.20
2023-03-17T20:35:33.243Z,7.73
2023-03-17T20:38:21.348Z,7.07
2023-03-17T20:41:10.426Z,6.97
2023-03-17T20:43:58.174Z,7.20
2023-03-17T20:46:46.634Z,6.13
2023-03-17T20:49:38.226Z,7.47
2023-03-17T20:52:29.501Z,7.13
2023-03-17T20:55:19.728Z,6.70
2023-03-17T20:58:06.976Z,16.40
2023-03-17T21:00:55.096Z,11.50
2023-03-17T21:03:43.404Z,8.07
2023-03-17T21:06:31.358Z,6.97
2023-03-17T21:09:18.802Z,6.30
2023-03-17T21:12:07.399Z,6.37
2023-03-17T21:14:55.137Z,6.73
2023-03-17T21:17:43.071Z,6.57
2023-03-17T21:20:30.710Z,6.93
2023-03-17T21:23:18.212Z,4.90
2023-03-17T21:26:06.163Z,3.93
2023-03-17T21:28:54.581Z,4.80
2023-03-17T21:31:42.337Z,3.60
2023-03-17T21:34:30.258Z,3.63
2023-03-17T21:37:18.525Z,4.43
2023-03-17T21:40:07.245Z,4.47
2023-03-17T21:42:55.375Z,3.90
2023-03-17T21:45:44.138Z,4.97
2023-03-17T21:48:31.724Z,4.50
2023-03-17T21:51:20.459Z,4.83
2023-03-17T21:54:07.886Z,6.13
2023-03-17T21:56:55.163Z,4.97
2023-03-17T21:59:43.059Z,5.53
2023-03-17T22:02:30.592Z,3.83
2023-03-17T22:05:17.956Z,4.40
2023-03-17T22:08:05.516Z,4.20
2023-03-17T22:10:52.952Z,4.17
2023-03-17T22:13:40.976Z,7.23
2023-03-17T22:16:28.986Z,4.50
2023-03-17T22:19:18.225Z,4.80
2023-03-17T22:22:07.266Z,4.70
2023-03-17T22:24:56.237Z,4.80
2023-03-17T22:27:43.527Z,4.70
2023-03-17T22:30:31.806Z,4.10
2023-03-17T22:33:19.201Z,4.40
2023-03-17T22:36:07.370Z,4.33
2023-03-17T22:38:54.686Z,4.50
2023-03-17T22:41:42.084Z,5.23
2023-03-17T22:44:29.377Z,4.27
2023-03-17T22:47:17.304Z,4.80
2023-03-17T22:50:04.629Z,4.40
2023-03-17T22:52:52.535Z,4.40
2023-03-17T22:55:40.091Z,4.40
2023-03-17T22:58:28.062Z,4.53
2023-03-17T23:01:16.753Z,4.17
2023-03-17T23:04:04.709Z,4.07
2023-03-17T23:06:53.340Z,4.57
2023-03-17T23:09:41.872Z,4.47
2023-03-17T23:12:29.126Z,4.57
2023-03-17T23:15:18.363Z,4.73
2023-03-17T23:18:05.840Z,4.83
2023-03-17T23:20:53.848Z,6.10
2023-03-17T23:23:41.370Z,4.20
2023-03-17T23:26:29.560Z,4.07
2023-03-17T23:29:17.006Z,3.83
2023-03-17T23:32:04.972Z,4.37
2023-03-17T23:34:52.868Z,4.30
2023-03-17T23:37:41.585Z,4.43
2023-03-17T23:40:29.373Z,4.13
2023-03-17T23:43:17.391Z,3.67
2023-03-17T23:46:05.659Z,3.83
2023-03-17T23:48:53.760Z,3.83
2023-03-17T23:51:41.873Z,4.33
2023-03-17T23:54:29.063Z,3.83
2023-03-17T23:57:17.635Z,4.00
